Time;durP1;ratioP1;P1;durP2;ratioP2;P2;SDS_P1;SDS_P2;PMS_P1;PMS_P2;Temp;Humidity;BMP_temperature;BMP_pressure;BME280_temperature;BME280_humidity;BME280_pressure;Samples;Min_cycle;Max_cycle;Signal;HPM_P1;HPM_P2
2023/12/23 00:00:19;;;;;;;334.42;143.48;;;2.90;99.90;;;;;;4996332;28;20026;-56
2023/12/23 00:02:44;;;;;;;357.63;143.88;;;3.00;99.90;;;;;;4996320;28;20026;-56
2023/12/23 00:05:10;;;;;;;358.52;144.93;;;3.00;99.90;;;;;;4996087;28;20034;-56
2023/12/23 00:07:36;;;;;;;312.67;143.10;;;3.00;99.90;;;;;;4996205;28;20053;-56
2023/12/23 00:10:03;;;;;;;295.83;137.65;;;3.00;99.90;;;;;;4996245;28;20088;-56
2023/12/23 00:12:29;;;;;;;291.83;132.13;;;3.10;99.90;;;;;;4996060;28;20395;-56
2023/12/23 00:14:55;;;;;;;323.85;152.90;;;3.10;99.90;;;;;;4996227;28;20106;-56
2023/12/23 00:17:21;;;;;;;449.23;214.00;;;3.10;99.90;;;;;;4995895;28;20495;-56
2023/12/23 00:19:47;;;;;;;452.05;218.38;;;3.10;99.90;;;;;;4996109;28;20033;-56
2023/12/23 00:22:13;;;;;;;359.13;172.35;;;3.10;99.90;;;;;;4996098;28;20553;-56
2023/12/23 00:24:39;;;;;;;336.92;167.45;;;3.00;99.90;;;;;;4996094;28;20026;-56
2023/12/23 00:27:05;;;;;;;271.00;134.57;;;2.90;99.90;;;;;;4998314;28;20388;-56
2023/12/23 00:29:31;;;;;;;299.20;149.20;;;2.90;99.90;;;;;;4998820;28;20569;-56
2023/12/23 00:31:57;;;;;;;331.20;162.45;;;2.90;99.90;;;;;;4999952;28;20034;-56
2023/12/23 00:34:23;;;;;;;294.23;145.73;;;2.90;99.90;;;;;;4999875;28;20034;-56
2023/12/23 00:36:49;;;;;;;325.02;154.90;;;3.00;99.90;;;;;;4999815;28;20067;-56
2023/12/23 00:39:15;;;;;;;260.33;126.95;;;3.00;99.90;;;;;;4998708;28;20468;-56
2023/12/23 00:41:41;;;;;;;222.70;113.88;;;3.00;99.90;;;;;;4999772;28;20026;-56
2023/12/23 00:44:07;;;;;;;231.57;117.90;;;3.00;99.90;;;;;;4999824;28;20152;-56
2023/12/23 00:46:34;;;;;;;234.88;117.88;;;3.10;99.90;;;;;;4998427;28;20046;-56
2023/12/23 00:49:00;;;;;;;242.70;119.18;;;3.10;99.90;;;;;;4998438;28;20038;-56
2023/12/23 00:51:26;;;;;;;233.90;115.78;;;3.10;99.90;;;;;;4999792;28;20081;-56
2023/12/23 00:53:52;;;;;;;232.70;113.43;;;3.10;99.90;;;;;;4999624;28;20030;-56
2023/12/23 00:56:21;;;;;;;260.77;124.50;;;3.10;99.90;;;;;;5015103;28;20566;-56
2023/12/23 00:58:48;;;;;;;221.07;108.22;;;3.00;99.90;;;;;;5019247;28;20533;-56
2023/12/23 01:01:14;;;;;;;276.38;131.73;;;3.00;99.90;;;;;;5019112;28;20468;-56
2023/12/23 01:03:40;;;;;;;208.98;101.80;;;3.00;99.90;;;;;;5019064;28;20041;-56
2023/12/23 01:06:07;;;;;;;200.13;99.50;;;3.10;99.90;;;;;;5018932;28;20041;-56
2023/12/23 01:08:32;;;;;;;160.32;81.90;;;3.10;99.90;;;;;;5018849;28;20104;-56
2023/12/23 01:10:59;;;;;;;163.18;81.28;;;3.10;99.90;;;;;;5018962;28;20030;-56
2023/12/23 01:13:25;;;;;;;158.95;77.65;;;3.20;99.90;;;;;;5019066;28;20042;-56
2023/12/23 01:15:51;;;;;;;160.35;78.70;;;3.30;99.90;;;;;;5018681;28;20025;-56
2023/12/23 01:18:17;;;;;;;152.48;77.30;;;3.40;99.90;;;;;;5018824;28;20041;-56
2023/12/23 01:20:43;;;;;;;148.48;73.90;;;3.50;99.90;;;;;;5017711;28;20040;-56
2023/12/23 01:23:10;;;;;;;147.88;73.80;;;3.50;99.90;;;;;;5018752;28;20034;-56
2023/12/23 01:25:36;;;;;;;154.15;76.63;;;3.50;99.90;;;;;;5017447;28;20030;-56
2023/12/23 01:28:04;;;;;;;155.43;77.05;;;3.50;99.90;;;;;;5017326;28;20033;-56
2023/12/23 01:30:34;;;;;;;186.55;87.28;;;3.60;99.90;;;;;;5017176;28;20124;-56
2023/12/23 01:33:00;;;;;;;191.73;90.38;;;3.60;99.90;;;;;;5018529;28;20036;-56
2023/12/23 01:35:26;;;;;;;204.48;97.07;;;3.60;99.90;;;;;;5018380;28;20470;-56
2023/12/23 01:37:52;;;;;;;189.50;93.18;;;3.60;99.90;;;;;;5015655;28;20030;-56
2023/12/23 01:40:18;;;;;;;171.70;84.30;;;3.70;99.90;;;;;;5018386;28;20113;-56
2023/12/23 01:42:44;;;;;;;189.95;89.35;;;3.70;99.90;;;;;;5016956;28;20037;-56
2023/12/23 01:45:10;;;;;;;179.55;81.10;;;3.60;99.90;;;;;;5018186;28;20042;-56
2023/12/23 01:47:46;;;;;;;176.35;77.60;;;3.50;99.90;;;;;;5018302;28;20109;-56
2023/12/23 01:50:13;;;;;;;159.93;70.53;;;3.60;99.90;;;;;;5018213;28;20049;-56
2023/12/23 01:52:39;;;;;;;146.45;66.68;;;3.70;99.90;;;;;;5018309;28;20037;-56
2023/12/23 01:55:06;;;;;;;174.80;72.70;;;3.70;99.90;;;;;;5010835;28;20109;-56
2023/12/23 01:57:33;;;;;;;164.20;70.43;;;3.70;99.90;;;;;;4998292;28;20022;-56
2023/12/23 01:59:59;;;;;;;137.88;64.50;;;3.70;99.90;;;;;;4998485;28;20025;-56
2023/12/23 02:02:28;;;;;;;141.73;67.35;;;3.70;99.90;;;;;;4997166;28;20034;-56
2023/12/23 02:04:55;;;;;;;189.95;83.70;;;3.80;99.90;;;;;;4998137;28;20443;-56
2023/12/23 02:07:21;;;;;;;194.80;82.90;;;3.80;99.90;;;;;;4996998;28;20105;-56
2023/12/23 02:09:47;;;;;;;215.32;86.55;;;3.80;99.90;;;;;;4997094;28;20058;-56
2023/12/23 02:12:39;;;;;;;203.43;83.93;;;3.70;99.90;;;;;;4997221;28;20178;-56
2023/12/23 02:15:15;;;;;;;156.63;66.60;;;3.70;99.90;;;;;;4998135;28;20451;-56
2023/12/23 02:17:41;;;;;;;180.20;70.88;;;3.70;99.90;;;;;;4997905;28;20483;-56
2023/12/23 02:20:08;;;;;;;160.15;67.00;;;3.60;99.90;;;;;;4996785;28;20030;-56
2023/12/23 02:22:34;;;;;;;169.68;67.07;;;3.50;99.90;;;;;;4997972;28;20026;-56
2023/12/23 02:25:00;;;;;;;169.98;68.97;;;3.50;99.90;;;;;;4996709;28;20030;-56
2023/12/23 02:27:46;;;;;;;157.65;67.75;;;3.50;99.90;;;;;;4996637;28;20039;-56
2023/12/23 02:30:15;;;;;;;139.43;60.58;;;3.40;99.90;;;;;;4996558;28;20475;-56
2023/12/23 02:32:43;;;;;;;137.00;62.20;;;3.40;99.90;;;;;;4996576;28;20034;-56
2023/12/23 02:35:08;;;;;;;146.40;65.75;;;3.40;99.90;;;;;;4996350;28;20057;-56
2023/12/23 02:37:34;;;;;;;152.63;68.13;;;3.40;99.90;;;;;;4997819;28;20490;-56
2023/12/23 02:40:00;;;;;;;146.93;68.85;;;3.40;99.90;;;;;;4994468;28;20050;-56
2023/12/23 02:42:26;;;;;;;149.80;69.45;;;3.30;99.90;;;;;;4997349;28;20109;-56
2023/12/23 02:44:52;;;;;;;143.13;66.18;;;3.40;99.90;;;;;;4997407;28;20037;-56
2023/12/23 02:47:18;;;;;;;143.88;66.32;;;3.30;99.90;;;;;;4996256;28;20022;-56
2023/12/23 02:49:44;;;;;;;137.27;63.38;;;3.40;99.90;;;;;;4995789;28;20030;-56
2023/12/23 02:52:10;;;;;;;138.40;63.63;;;3.30;99.90;;;;;;4996058;28;20038;-56
2023/12/23 02:54:38;;;;;;;153.00;67.60;;;3.30;99.90;;;;;;4998260;28;20099;-56
2023/12/23 02:57:04;;;;;;;129.50;60.75;;;3.20;99.90;;;;;;5016911;28;20034;-56
2023/12/23 02:59:30;;;;;;;126.35;57.88;;;3.30;99.90;;;;;;5015618;28;20029;-56
2023/12/23 03:01:56;;;;;;;122.00;57.55;;;3.40;99.90;;;;;;5016767;28;20105;-56
2023/12/23 03:04:22;;;;;;;130.52;59.97;;;3.20;99.90;;;;;;5016578;28;20364;-56
2023/12/23 03:06:48;;;;;;;148.18;68.22;;;3.10;99.90;;;;;;5016787;28;20080;-56
2023/12/23 03:09:14;;;;;;;128.27;59.53;;;3.10;99.90;;;;;;5016758;28;20454;-56
2023/12/23 03:11:40;;;;;;;114.68;54.28;;;3.10;99.90;;;;;;5015451;28;20431;-56
2023/12/23 03:14:06;;;;;;;119.90;53.40;;;3.20;99.90;;;;;;5016729;28;20093;-56
2023/12/23 03:16:35;;;;;;;116.13;53.42;;;3.30;99.90;;;;;;5016404;28;20060;-56
2023/12/23 03:19:04;;;;;;;103.57;50.17;;;3.40;99.90;;;;;;5015242;28;20057;-56
2023/12/23 03:21:30;;;;;;;103.22;49.40;;;3.40;99.90;;;;;;5016563;28;20029;-56
2023/12/23 03:23:56;;;;;;;101.90;47.97;;;3.40;99.90;;;;;;5016639;28;20018;-56
2023/12/23 03:26:22;;;;;;;110.35;51.92;;;3.40;99.90;;;;;;5016449;28;20057;-56
2023/12/23 03:28:48;;;;;;;108.38;52.15;;;3.40;99.90;;;;;;5016458;28;20026;-56
2023/12/23 03:31:14;;;;;;;112.95;51.10;;;3.50;99.90;;;;;;5015056;28;20475;-56
2023/12/23 03:33:40;;;;;;;120.38;52.60;;;3.50;99.90;;;;;;5015206;28;20060;-56
2023/12/23 03:36:07;;;;;;;127.90;58.92;;;3.40;99.90;;;;;;5014903;28;20402;-56
2023/12/23 03:38:34;;;;;;;148.00;64.78;;;3.40;99.90;;;;;;5016139;28;20044;-56
2023/12/23 03:41:00;;;;;;;124.00;56.40;;;3.50;99.90;;;;;;5014864;28;20041;-56
2023/12/23 03:43:25;;;;;;;130.73;59.13;;;3.50;99.90;;;;;;5016140;28;20096;-56
2023/12/23 03:45:52;;;;;;;121.47;58.28;;;3.50;99.90;;;;;;5014835;28;20058;-56
2023/12/23 03:48:18;;;;;;;120.18;56.65;;;3.50;99.90;;;;;;5014769;28;20037;-57
2023/12/23 03:50:43;;;;;;;124.93;61.83;;;3.60;99.90;;;;;;5014875;28;20026;-56
2023/12/23 03:53:09;;;;;;;149.85;67.75;;;3.50;99.90;;;;;;5016233;28;20026;-56
2023/12/23 03:55:35;;;;;;;146.32;68.25;;;3.50;99.90;;;;;;5005958;28;20476;-56
2023/12/23 03:58:02;;;;;;;142.20;66.45;;;3.60;99.90;;;;;;4996320;28;20034;-56
2023/12/23 04:00:30;;;;;;;164.13;74.63;;;3.50;99.90;;;;;;4994269;28;20053;-56
2023/12/23 04:02:57;;;;;;;284.45;121.63;;;3.40;99.90;;;;;;4994823;28;20439;-56
2023/12/23 04:05:23;;;;;;;227.98;99.30;;;3.30;99.90;;;;;;4994966;28;20036;-56
2023/12/23 04:07:50;;;;;;;179.48;81.53;;;3.30;99.90;;;;;;4994970;28;20034;-56
2023/12/23 04:10:19;;;;;;;182.77;84.85;;;3.40;99.90;;;;;;4996404;28;20105;-56
2023/12/23 04:12:45;;;;;;;162.50;78.30;;;3.50;99.90;;;;;;4994774;28;20035;-57
2023/12/23 04:15:11;;;;;;;99.45;49.00;;;3.60;99.90;;;;;;4994873;28;20045;-56
2023/12/23 04:17:39;;;;;;;57.20;29.20;;;3.60;99.90;;;;;;4978443;28;20514;-56
2023/12/23 04:20:06;;;;;;;76.28;38.67;;;3.40;99.90;;;;;;4994778;28;20286;-56
2023/12/23 04:22:32;;;;;;;81.53;40.33;;;3.40;99.90;;;;;;4994659;28;20384;-56
2023/12/23 04:24:58;;;;;;;76.43;36.42;;;3.50;99.90;;;;;;4996037;28;20034;-56
2023/12/23 04:27:24;;;;;;;72.18;36.47;;;3.60;99.90;;;;;;4994527;28;20129;-56
2023/12/23 04:29:51;;;;;;;67.85;35.08;;;3.70;99.90;;;;;;4995915;28;20042;-56
2023/12/23 04:32:17;;;;;;;65.57;34.15;;;3.80;99.90;;;;;;4994703;28;20030;-56
2023/12/23 04:34:43;;;;;;;65.97;33.63;;;3.70;99.90;;;;;;4994671;28;20476;-56
2023/12/23 04:37:09;;;;;;;71.82;35.65;;;3.60;99.90;;;;;;4994518;28;20088;-56
2023/12/23 04:39:36;;;;;;;69.45;34.35;;;3.60;99.90;;;;;;4994423;28;20125;-57
2023/12/23 04:42:03;;;;;;;68.15;34.17;;;3.50;99.90;;;;;;4994573;28;20057;-56
2023/12/23 04:44:30;;;;;;;74.40;35.95;;;3.60;99.90;;;;;;4994466;28;20065;-56
2023/12/23 04:46:56;;;;;;;84.05;39.58;;;3.60;99.90;;;;;;4994582;28;20027;-56
2023/12/23 04:49:22;;;;;;;72.38;36.67;;;3.60;99.90;;;;;;4994427;28;20551;-56
2023/12/23 04:51:50;;;;;;;71.30;35.25;;;3.60;99.90;;;;;;4994532;28;20030;-57
2023/12/23 04:54:16;;;;;;;96.50;49.25;;;3.50;99.90;;;;;;4994541;28;20088;-56
2023/12/23 04:56:42;;;;;;;88.43;46.72;;;3.50;99.90;;;;;;5012966;28;20053;-56
2023/12/23 04:59:08;;;;;;;88.57;45.35;;;3.50;99.90;;;;;;5015410;28;20498;-56
2023/12/23 05:01:34;;;;;;;81.32;41.60;;;3.50;99.90;;;;;;5015362;28;20391;-56
2023/12/23 05:04:00;;;;;;;74.35;39.90;;;3.60;99.90;;;;;;5015308;28;20029;-56
2023/12/23 05:06:26;;;;;;;75.07;40.90;;;3.70;99.90;;;;;;5013971;28;20030;-56
2023/12/23 05:08:52;;;;;;;57.88;31.95;;;3.80;99.90;;;;;;5015252;28;20109;-56
2023/12/23 05:11:18;;;;;;;73.80;36.00;;;3.90;99.90;;;;;;5013938;28;20058;-56
2023/12/23 05:13:43;;;;;;;72.03;34.55;;;3.90;99.90;;;;;;5016882;28;20026;-56
2023/12/23 05:16:09;;;;;;;56.03;31.67;;;3.90;99.90;;;;;;5018664;28;20025;-56
2023/12/23 05:18:35;;;;;;;75.95;39.08;;;4.00;99.90;;;;;;5019000;28;20694;-56
2023/12/23 05:21:01;;;;;;;81.45;41.88;;;4.00;99.90;;;;;;5017486;28;20076;-56
2023/12/23 05:23:27;;;;;;;119.30;59.50;;;4.10;99.90;;;;;;5017437;28;20120;-56
2023/12/23 05:25:54;;;;;;;119.43;60.50;;;4.10;99.90;;;;;;5017416;28;20026;-56
2023/12/23 05:28:21;;;;;;;98.10;51.47;;;4.00;99.90;;;;;;5017351;28;20053;-56
2023/12/23 05:30:47;;;;;;;90.70;46.08;;;4.10;99.90;;;;;;5018629;28;20025;-56
2023/12/23 05:33:13;;;;;;;93.07;43.92;;;4.10;99.90;;;;;;5018546;28;20026;-56
2023/12/23 05:35:39;;;;;;;88.63;40.78;;;4.20;99.90;;;;;;5018475;28;20468;-56
2023/12/23 05:38:05;;;;;;;113.65;48.83;;;4.10;99.90;;;;;;5018376;28;20028;-56
2023/12/23 05:40:31;;;;;;;87.70;43.75;;;4.10;99.90;;;;;;5018302;28;20122;-56
2023/12/23 05:42:57;;;;;;;88.55;41.05;;;4.20;99.90;;;;;;5018339;28;20037;-56
2023/12/23 05:45:23;;;;;;;88.10;41.72;;;4.20;99.90;;;;;;5018405;28;20121;-56
2023/12/23 05:47:50;;;;;;;82.82;41.05;;;4.20;99.90;;;;;;5018353;28;20048;-56
2023/12/23 05:50:16;;;;;;;78.03;40.40;;;4.20;99.90;;;;;;5018311;28;20587;-56
2023/12/23 05:52:44;;;;;;;86.53;42.20;;;4.30;99.90;;;;;;5018258;28;20492;-57
2023/12/23 05:55:10;;;;;;;90.40;40.05;;;4.20;99.90;;;;;;5011693;28;20026;-57
2023/12/23 05:57:35;;;;;;;86.35;41.88;;;4.10;99.90;;;;;;4998513;28;20049;-56
2023/12/23 06:00:05;;;;;;;92.22;41.70;;;4.10;99.90;;;;;;4998585;28;20034;-56
2023/12/23 06:02:37;;;;;;;83.70;42.65;;;4.10;99.90;;;;;;4998535;28;20034;-56
2023/12/23 06:05:04;;;;;;;77.82;40.85;;;4.10;99.90;;;;;;4998282;28;20169;-56
2023/12/23 06:07:30;;;;;;;102.68;46.75;;;4.10;99.90;;;;;;4998295;28;20098;-56
2023/12/23 06:09:56;;;;;;;108.95;47.67;;;4.20;99.90;;;;;;4998226;28;20395;-56
2023/12/23 06:12:22;;;;;;;131.05;62.47;;;4.20;99.90;;;;;;4998302;28;20028;-56
2023/12/23 06:14:47;;;;;;;139.40;73.60;;;4.20;99.90;;;;;;4998203;28;20022;-56
2023/12/23 06:17:13;;;;;;;130.80;67.38;;;4.10;99.90;;;;;;4997916;28;20031;-56
2023/12/23 06:19:39;;;;;;;162.00;84.97;;;4.10;99.90;;;;;;4998174;28;20033;-56
2023/12/23 06:22:05;;;;;;;135.90;71.53;;;4.00;99.90;;;;;;4997995;28;20113;-56
2023/12/23 06:24:31;;;;;;;123.72;55.38;;;4.10;99.90;;;;;;4996902;28;20034;-57
2023/12/23 06:26:57;;;;;;;126.55;54.28;;;4.20;99.90;;;;;;4998006;28;20026;-56
2023/12/23 06:29:22;;;;;;;127.53;54.17;;;4.00;99.90;;;;;;4997876;28;20033;-56
2023/12/23 06:31:48;;;;;;;111.43;50.00;;;4.00;99.90;;;;;;4997885;28;20037;-56
2023/12/23 06:34:14;;;;;;;109.00;47.78;;;4.00;99.90;;;;;;4997910;28;20384;-56
2023/12/23 06:36:40;;;;;;;107.95;48.83;;;4.00;99.90;;;;;;4997520;28;20033;-56
2023/12/23 06:39:06;;;;;;;140.60;67.80;;;3.90;99.90;;;;;;4997726;28;20540;-56
2023/12/23 06:41:32;;;;;;;131.30;60.75;;;3.90;99.90;;;;;;4997650;28;20117;-56
2023/12/23 06:43:58;;;;;;;147.50;67.95;;;3.80;99.90;;;;;;4997693;28;20061;-56
2023/12/23 06:46:24;;;;;;;125.35;60.03;;;3.70;99.90;;;;;;4997524;28;20042;-56
2023/12/23 06:48:51;;;;;;;137.25;63.13;;;3.60;99.90;;;;;;4997487;28;20069;-56
2023/12/23 06:51:17;;;;;;;134.13;62.15;;;3.50;99.90;;;;;;4996320;28;20031;-56
2023/12/23 06:53:43;;;;;;;133.55;65.53;;;3.50;99.90;;;;;;4997384;28;20089;-56
2023/12/23 06:56:10;;;;;;;127.95;60.70;;;3.60;99.90;;;;;;4997203;28;20023;-56
2023/12/23 06:58:36;;;;;;;130.82;58.78;;;3.60;99.90;;;;;;4997203;28;20039;-56
2023/12/23 07:01:02;;;;;;;126.78;58.10;;;3.60;99.90;;;;;;4997324;28;20037;-56
2023/12/23 07:03:28;;;;;;;124.63;61.15;;;3.50;99.90;;;;;;4997272;28;20033;-56
2023/12/23 07:05:54;;;;;;;119.78;56.72;;;3.60;99.90;;;;;;4997067;28;20023;-56
2023/12/23 07:08:20;;;;;;;123.65;61.53;;;3.50;99.90;;;;;;4996919;28;20046;-56
2023/12/23 07:10:46;;;;;;;137.48;64.70;;;3.70;99.90;;;;;;4997072;28;20030;-56
2023/12/23 07:13:12;;;;;;;137.65;66.03;;;3.60;99.90;;;;;;4997032;28;20073;-56
2023/12/23 07:15:37;;;;;;;126.07;60.00;;;3.80;99.90;;;;;;4996957;28;20023;-56
2023/12/23 07:18:04;;;;;;;109.28;50.90;;;3.90;99.90;;;;;;4997070;28;20357;-56
2023/12/23 07:20:30;;;;;;;118.93;55.72;;;4.10;99.90;;;;;;4997240;28;20029;-57
2023/12/23 07:22:56;;;;;;;123.57;57.97;;;4.30;99.90;;;;;;4996864;28;20027;-56
2023/12/23 07:25:22;;;;;;;137.43;63.60;;;4.70;99.90;;;;;;4996893;28;20023;-56
2023/12/23 07:27:47;;;;;;;129.93;58.63;;;4.80;99.90;;;;;;4996767;28;20037;-56
2023/12/23 07:30:14;;;;;;;110.25;56.70;;;4.80;99.90;;;;;;4996713;28;20468;-56
2023/12/23 07:32:40;;;;;;;115.43;57.85;;;4.90;99.90;;;;;;4996731;28;20049;-57
2023/12/23 07:35:06;;;;;;;126.07;58.88;;;5.10;99.90;;;;;;4996581;28;20068;-57
2023/12/23 07:37:32;;;;;;;123.70;58.58;;;5.10;99.90;;;;;;4996429;28;20365;-56
2023/12/23 07:39:58;;;;;;;122.00;59.17;;;5.00;99.90;;;;;;4996424;28;20117;-56
2023/12/23 07:42:24;;;;;;;117.22;58.05;;;5.00;99.90;;;;;;4996468;28;20380;-56
2023/12/23 07:44:50;;;;;;;127.05;60.05;;;5.10;99.90;;;;;;4996786;28;20050;-56
2023/12/23 07:47:17;;;;;;;131.63;60.58;;;5.10;99.90;;;;;;4996486;28;20022;-56
2023/12/23 07:49:43;;;;;;;137.27;59.67;;;5.10;99.90;;;;;;4996392;28;20448;-56
2023/12/23 07:52:09;;;;;;;139.43;61.67;;;5.10;99.90;;;;;;4996402;28;20080;-56
2023/12/23 07:54:35;;;;;;;160.60;81.95;;;5.10;99.90;;;;;;4998036;28;20218;-56
2023/12/23 07:57:00;;;;;;;165.00;76.28;;;5.20;99.90;;;;;;5015857;28;20120;-56
2023/12/23 07:59:26;;;;;;;146.40;72.95;;;5.20;99.90;;;;;;5015989;28;20076;-56
2023/12/23 08:01:52;;;;;;;157.88;82.90;;;5.30;99.90;;;;;;5015923;28;20052;-57
2023/12/23 08:04:18;;;;;;;169.45;83.90;;;5.40;99.90;;;;;;5015844;28;20484;-56
2023/12/23 08:06:44;;;;;;;149.68;82.10;;;5.50;99.90;;;;;;5015720;28;20054;-56
2023/12/23 08:09:10;;;;;;;183.13;91.40;;;5.50;99.90;;;;;;5015781;28;20060;-57
2023/12/23 08:11:36;;;;;;;174.35;91.68;;;5.50;99.90;;;;;;5015786;28;20037;-57
2023/12/23 08:14:03;;;;;;;141.57;75.63;;;5.60;99.90;;;;;;5016018;28;20018;-57
2023/12/23 08:16:29;;;;;;;228.93;100.80;;;5.70;99.90;;;;;;5015169;28;20208;-56
2023/12/23 08:18:55;;;;;;;313.30;128.55;;;5.90;99.90;;;;;;5015527;28;20125;-56
2023/12/23 08:21:21;;;;;;;330.45;132.52;;;6.00;99.90;;;;;;5014455;28;20058;-56
2023/12/23 08:23:47;;;;;;;227.75;97.32;;;6.00;99.90;;;;;;5015862;28;20034;-56
2023/12/23 08:26:13;;;;;;;215.88;95.55;;;6.10;99.90;;;;;;5015657;28;20030;-56
2023/12/23 08:28:42;;;;;;;219.50;99.53;;;6.20;99.90;;;;;;5015508;28;20034;-56
2023/12/23 08:31:10;;;;;;;231.23;103.35;;;6.20;99.90;;;;;;5014354;28;20030;-56
2023/12/23 08:33:37;;;;;;;253.10;110.68;;;6.20;99.90;;;;;;5014296;28;20088;-56
2023/12/23 08:36:07;;;;;;;246.25;110.53;;;6.40;99.90;;;;;;5015341;28;20475;-56
2023/12/23 08:38:35;;;;;;;211.15;89.57;;;6.50;99.90;;;;;;4998430;28;20034;-56
2023/12/23 08:41:04;;;;;;;129.10;66.13;;;6.60;99.90;;;;;;5015532;28;20022;-56
2023/12/23 08:43:31;;;;;;;112.75;57.80;;;6.70;99.90;;;;;;5014468;28;20072;-56
2023/12/23 08:45:57;;;;;;;90.70;51.60;;;6.90;99.90;;;;;;5015386;28;20026;-56
2023/12/23 08:48:23;;;;;;;91.38;45.72;;;7.00;99.90;;;;;;5018024;28;20120;-56
2023/12/23 08:50:49;;;;;;;75.05;40.72;;;7.30;99.90;;;;;;5019389;28;20026;-56
2023/12/23 08:53:16;;;;;;;71.15;37.75;;;7.80;99.90;;;;;;5019323;28;20028;-56
2023/12/23 08:55:44;;;;;;;62.88;33.05;;;8.50;99.90;;;;;;5008404;28;20026;-56
2023/12/23 08:58:14;;;;;;;65.20;35.20;;;9.20;99.90;;;;;;4999376;28;20030;-56
2023/12/23 09:00:40;;;;;;;61.60;34.43;;;9.80;99.90;;;;;;4999574;28;20030;-56
2023/12/23 09:03:05;;;;;;;65.00;30.60;;;9.90;99.90;;;;;;4999534;28;20162;-56
2023/12/23 09:05:31;;;;;;;63.28;32.75;;;10.00;99.90;;;;;;4999330;28;20041;-57
2023/12/23 09:07:58;;;;;;;63.50;33.10;;;10.00;99.90;;;;;;4999508;28;20030;-56
2023/12/23 09:10:24;;;;;;;56.22;28.33;;;10.20;99.90;;;;;;4999593;28;20369;-56
2023/12/23 09:12:50;;;;;;;54.92;31.48;;;10.40;99.00;;;;;;4999256;28;20037;-56
2023/12/23 09:15:16;;;;;;;60.47;29.88;;;10.30;97.90;;;;;;4999267;28;20022;-56
2023/12/23 09:17:42;;;;;;;60.90;29.48;;;10.30;98.70;;;;;;4998813;28;20050;-56
2023/12/23 09:20:10;;;;;;;64.15;27.33;;;10.10;97.90;;;;;;4999241;28;20022;-56
2023/12/23 09:22:36;;;;;;;49.67;27.63;;;10.70;98.80;;;;;;4999171;28;20030;-57
2023/12/23 09:25:02;;;;;;;62.63;28.10;;;11.40;97.80;;;;;;4997779;28;20030;-57
2023/12/23 09:27:28;;;;;;;56.83;29.25;;;12.10;94.60;;;;;;4998961;28;20459;-56
2023/12/23 09:29:56;;;;;;;65.35;30.88;;;13.50;94.00;;;;;;4999147;28;20038;-57
2023/12/23 09:32:23;;;;;;;66.65;30.77;;;14.10;87.70;;;;;;4998836;28;20032;-57
2023/12/23 09:34:51;;;;;;;74.30;39.58;;;15.40;87.00;;;;;;4981291;28;20038;-57
2023/12/23 09:37:20;;;;;;;92.22;41.88;;;14.60;77.70;;;;;;4998785;28;20026;-57
2023/12/23 09:39:47;;;;;;;83.05;40.38;;;14.70;79.50;;;;;;4981470;28;20034;-57
2023/12/23 09:42:16;;;;;;;95.47;50.20;;;15.20;73.00;;;;;;4981313;28;20052;-57
2023/12/23 09:44:43;;;;;;;70.25;38.60;;;16.20;69.70;;;;;;4997509;28;20456;-57
2023/12/23 09:47:09;;;;;;;72.53;36.15;;;17.30;68.10;;;;;;4998497;28;20060;-57
2023/12/23 09:49:36;;;;;;;69.55;36.30;;;17.40;62.40;;;;;;4999093;28;20448;-57
2023/12/23 09:52:03;;;;;;;25.13;12.98;;;17.50;57.40;;;;;;4998691;28;20034;-57
2023/12/23 09:54:32;;;;;;;26.13;12.05;;;18.00;52.40;;;;;;4999378;28;20392;-57
2023/12/23 09:56:59;;;;;;;29.40;10.68;;;18.70;52.20;;;;;;5018025;28;20065;-57
2023/12/23 09:59:25;;;;;;;38.22;13.77;;;17.70;48.90;;;;;;5016918;28;20057;-57
2023/12/23 10:01:52;;;;;;;14.85;7.43;;;17.50;53.10;;;;;;5018227;28;20037;-57
2023/12/23 10:04:18;;;;;;;18.15;6.78;;;17.90;46.90;;;;;;5018048;28;20030;-57
2023/12/23 10:06:44;;;;;;;32.63;10.73;;;16.70;48.40;;;;;;5017739;28;20395;-57
2023/12/23 10:09:10;;;;;;;24.98;6.22;;;16.70;51.10;;;;;;5017841;28;20094;-57
2023/12/23 10:11:36;;;;;;;8.10;4.07;;;17.60;48.70;;;;;;5017759;28;20080;-57
2023/12/23 10:14:02;;;;;;;18.98;5.85;;;17.60;45.90;;;;;;5017842;28;20037;-57
2023/12/23 10:16:28;;;;;;;17.95;8.23;;;17.30;46.90;;;;;;5017535;28;20034;-57
2023/12/23 10:18:55;;;;;;;36.50;8.35;;;18.50;46.70;;;;;;5017765;28;20026;-57
2023/12/23 10:21:21;;;;;;;9.35;3.50;;;18.40;46.90;;;;;;5017724;28;20037;-57
2023/12/23 10:23:47;;;;;;;8.38;3.40;;;17.70;45.80;;;;;;5017574;28;20022;-57
2023/12/23 10:26:14;;;;;;;11.25;4.88;;;17.60;44.90;;;;;;5017531;28;20021;-57
2023/12/23 10:28:43;;;;;;;6.78;3.95;;;18.30;45.50;;;;;;5017535;28;20450;-57
2023/12/23 10:31:13;;;;;;;5.97;3.65;;;18.40;39.80;;;;;;5017674;28;20022;-57
2023/12/23 10:33:46;;;;;;;19.63;6.53;;;17.50;41.70;;;;;;5017476;28;20036;-57
2023/12/23 10:36:13;;;;;;;23.15;5.40;;;17.50;41.80;;;;;;5017208;28;20113;-56
2023/12/23 10:38:46;;;;;;;14.85;6.28;;;16.80;42.80;;;;;;5017355;28;20448;-57
2023/12/23 10:41:22;;;;;;;12.10;6.25;;;16.10;46.80;;;;;;5017302;28;20042;-56
2023/12/23 10:43:51;;;;;;;18.25;6.85;;;15.20;47.80;;;;;;5017277;28;20031;-57
2023/12/23 10:46:19;;;;;;;13.27;5.15;;;15.00;49.20;;;;;;5017196;28;20049;-56
2023/12/23 10:48:46;;;;;;;22.30;6.93;;;14.40;50.30;;;;;;5017062;28;20384;-56
2023/12/23 10:51:13;;;;;;;12.60;6.22;;;13.80;51.70;;;;;;5017099;28;20021;-57
2023/12/23 10:53:40;;;;;;;13.32;6.55;;;13.30;51.20;;;;;;5017067;28;20030;-56
2023/12/23 10:56:07;;;;;;;24.05;7.20;;;13.50;57.80;;;;;;5001835;28;20046;-56
2023/12/23 10:58:34;;;;;;;17.63;7.53;;;13.70;52.00;;;;;;4997456;28;20052;-56
2023/12/23 11:01:00;;;;;;;29.63;8.57;;;12.90;54.00;;;;;;4997330;28;20077;-56
2023/12/23 11:03:32;;;;;;;24.85;10.35;;;13.30;57.30;;;;;;4997223;28;20107;-57
2023/12/23 11:06:01;;;;;;;20.98;7.18;;;14.50;54.50;;;;;;4997230;28;20037;-57
2023/12/23 11:08:30;;;;;;;17.70;4.68;;;15.50;51.00;;;;;;4997226;28;20014;-56
2023/12/23 11:10:56;;;;;;;19.45;5.22;;;15.20;50.20;;;;;;4996898;28;20022;-57
2023/12/23 11:13:22;;;;;;;7.60;2.90;;;15.40;50.00;;;;;;4997107;28;20022;-56
2023/12/23 11:15:48;;;;;;;30.85;7.10;;;15.60;47.00;;;;;;4996832;28;20073;-56
2023/12/23 11:18:14;;;;;;;16.70;3.92;;;15.90;48.90;;;;;;4996939;28;20041;-57
2023/12/23 11:20:45;;;;;;;19.20;4.97;;;16.40;49.70;;;;;;4997136;28;20436;-57
2023/12/23 11:23:33;;;;;;;11.80;3.30;;;16.40;45.70;;;;;;4996870;28;20026;-56
2023/12/23 11:26:03;;;;;;;18.23;5.25;;;14.50;46.90;;;;;;4996872;28;20054;-56
2023/12/23 11:28:31;;;;;;;6.15;3.80;;;14.60;51.90;;;;;;4996719;28;20058;-56
2023/12/23 11:31:03;;;;;;;10.50;3.45;;;15.10;50.40;;;;;;4997095;28;20018;-56
2023/12/23 11:33:35;;;;;;;9.13;5.13;;;15.00;49.10;;;;;;4996998;28;20027;-57
2023/12/23 11:36:02;;;;;;;18.25;6.38;;;15.90;49.50;;;;;;4996647;28;20026;-57
2023/12/23 11:38:57;;;;;;;15.85;7.50;;;16.00;47.50;;;;;;4996629;28;20026;-57
2023/12/23 11:41:23;;;;;;;15.55;6.20;;;16.20;47.60;;;;;;4996187;28;20424;-56
2023/12/23 11:43:49;;;;;;;8.27;3.72;;;16.10;47.30;;;;;;4996592;28;20038;-56
2023/12/23 11:46:18;;;;;;;7.55;3.00;;;15.00;47.00;;;;;;4996457;28;20084;-56
2023/12/23 11:48:44;;;;;;;10.18;3.70;;;14.80;49.40;;;;;;4996506;28;20511;-56
2023/12/23 11:51:13;;;;;;;13.70;3.97;;;14.50;49.20;;;;;;4996194;28;20049;-57
2023/12/23 11:53:40;;;;;;;13.15;3.40;;;14.80;49.80;;;;;;4996395;28;20116;-56
2023/12/23 11:56:06;;;;;;;9.27;3.58;;;15.50;50.50;;;;;;5010170;28;20357;-56
2023/12/23 11:58:33;;;;;;;9.10;3.40;;;15.80;46.70;;;;;;5015924;28;20026;-56
2023/12/23 12:00:59;;;;;;;16.45;5.35;;;15.20;47.00;;;;;;5015943;28;20096;-56
2023/12/23 12:03:27;;;;;;;39.08;10.82;;;15.80;49.50;;;;;;5015840;28;20498;-57
2023/12/23 12:05:57;;;;;;;18.98;6.20;;;15.90;45.50;;;;;;5015522;28;20511;-56
2023/12/23 12:08:24;;;;;;;7.40;3.63;;;15.10;47.60;;;;;;5015722;28;20050;-56
2023/12/23 12:10:50;;;;;;;25.05;6.85;;;14.90;47.70;;;;;;5015736;28;20082;-56
2023/12/23 12:13:16;;;;;;;32.78;10.70;;;15.20;48.30;;;;;;5015816;28;20032;-57
2023/12/23 12:15:42;;;;;;;9.88;4.97;;;15.90;49.20;;;;;;5015685;28;20108;-56
2023/12/23 12:18:10;;;;;;;24.98;8.25;;;15.80;48.40;;;;;;5015634;28;20033;-57
2023/12/23 12:20:37;;;;;;;36.72;14.63;;;15.90;47.00;;;;;;5015659;28;20067;-56
2023/12/23 12:23:03;;;;;;;12.35;6.13;;;16.50;45.90;;;;;;5015085;28;20539;-56
2023/12/23 12:25:29;;;;;;;10.70;6.03;;;15.30;46.70;;;;;;5015681;28;20037;-56
2023/12/23 12:27:56;;;;;;;28.23;10.80;;;14.80;49.20;;;;;;5015682;28;20387;-57